Time;durP1;ratioP1;P1;durP2;ratioP2;P2;SDS_P1;SDS_P2;PMS_P1;PMS_P2;Temp;Humidity;BMP_temperature;BMP_pressure;BME280_temperature;BME280_humidity;BME280_pressure;Samples;Min_cycle;Max_cycle;Signal;HPM_P1;HPM_P2
2023/01/08 00:01:10;;;;;;;0.73;0.73;;;3.30;99.90;;;;;;5076294;28;20624;-69
2023/01/08 00:03:37;;;;;;;0.75;0.75;;;3.10;99.90;;;;;;5075919;28;20193;-69
2023/01/08 00:06:05;;;;;;;0.40;0.40;;;3.10;99.90;;;;;;5075978;28;20172;-70
2023/01/08 00:08:31;;;;;;;0.40;0.40;;;3.10;99.90;;;;;;5075781;28;20624;-67
2023/01/08 00:10:57;;;;;;;0.47;0.47;;;3.30;99.90;;;;;;5075846;28;20308;-68
2023/01/08 00:13:23;;;;;;;0.30;0.30;;;3.30;99.90;;;;;;5075609;28;20808;-70
2023/01/08 00:15:49;;;;;;;0.30;0.30;;;3.20;99.90;;;;;;5075569;28;20839;-69
2023/01/08 00:18:14;;;;;;;0.70;0.60;;;3.20;99.90;;;;;;5075840;28;20794;-69
2023/01/08 00:20:41;;;;;;;0.40;0.40;;;3.20;99.90;;;;;;5076344;28;20500;-70
2023/01/08 00:23:13;;;;;;;0.68;0.68;;;3.20;99.90;;;;;;5074135;28;20678;-70
2023/01/08 00:25:39;;;;;;;0.95;0.75;;;3.30;99.90;;;;;;5075374;28;20177;-67
2023/01/08 00:28:04;;;;;;;0.50;0.50;;;3.30;99.90;;;;;;5075597;28;20173;-69
2023/01/08 00:30:30;;;;;;;0.60;0.60;;;3.30;99.90;;;;;;5075447;28;20165;-68
2023/01/08 00:32:56;;;;;;;0.30;0.30;;;3.30;99.90;;;;;;5074291;28;20432;-68
2023/01/08 00:35:21;;;;;;;0.33;0.33;;;3.40;99.90;;;;;;5075316;28;20269;-68
2023/01/08 00:37:51;;;;;;;0.40;0.40;;;3.40;99.90;;;;;;5075329;28;20181;-68
2023/01/08 00:40:16;;;;;;;0.40;0.40;;;3.40;99.90;;;;;;5075327;28;20170;-69
2023/01/08 00:42:42;;;;;;;0.57;0.57;;;3.30;99.90;;;;;;5075240;28;20715;-68
2023/01/08 00:45:09;;;;;;;1.00;1.00;;;3.20;99.90;;;;;;5075200;28;20403;-70
2023/01/08 00:47:34;;;;;;;1.20;1.20;;;3.30;99.90;;;;;;5075358;28;20400;-68
2023/01/08 00:50:00;;;;;;;9.83;2.40;;;3.30;99.90;;;;;;5075306;28;20193;-68
2023/01/08 00:52:25;;;;;;;0.60;0.60;;;3.40;99.90;;;;;;5075195;28;20666;-69
2023/01/08 00:54:51;;;;;;;3.13;2.93;;;3.40;99.90;;;;;;5074965;28;20187;-69
2023/01/08 00:57:17;;;;;;;0.40;0.40;;;3.60;99.90;;;;;;5075080;28;20558;-70
2023/01/08 00:59:42;;;;;;;0.40;0.40;;;3.50;99.90;;;;;;5075163;28;20169;-69
2023/01/08 01:02:09;;;;;;;0.40;0.40;;;3.50;99.90;;;;;;5073389;28;20213;-67
2023/01/08 01:04:35;;;;;;;0.63;0.63;;;3.60;99.90;;;;;;5074835;28;20218;-69
2023/01/08 01:07:01;;;;;;;0.30;0.30;;;3.60;99.90;;;;;;5075267;28;20215;-69
2023/01/08 01:09:27;;;;;;;2.20;1.73;;;3.60;99.90;;;;;;5074783;28;20408;-70
2023/01/08 01:11:52;;;;;;;0.30;0.30;;;3.60;99.90;;;;;;5074649;28;20924;-69
2023/01/08 01:14:18;;;;;;;4.73;0.93;;;3.60;99.90;;;;;;5074558;28;20181;-70
2023/01/08 01:16:44;;;;;;;0.40;0.40;;;3.70;99.90;;;;;;5074792;28;20170;-70
2023/01/08 01:19:10;;;;;;;1.98;1.88;;;3.70;99.90;;;;;;5074737;28;20227;-68
2023/01/08 01:21:35;;;;;;;1.70;1.60;;;3.70;99.90;;;;;;5074329;28;20201;-68
2023/01/08 01:24:03;;;;;;;0.40;0.40;;;3.80;99.90;;;;;;5074204;28;20288;-70
2023/01/08 01:26:30;;;;;;;0.40;0.40;;;3.90;99.90;;;;;;5074507;28;20215;-70
2023/01/08 01:28:56;;;;;;;0.40;0.40;;;3.90;99.90;;;;;;5074665;28;20208;-68
2023/01/08 01:31:23;;;;;;;0.40;0.40;;;4.00;99.90;;;;;;5074475;28;20169;-68
2023/01/08 01:33:49;;;;;;;0.30;0.30;;;4.00;99.90;;;;;;5074300;28;20200;-68
2023/01/08 01:36:18;;;;;;;0.40;0.40;;;3.90;99.90;;;;;;5073892;28;20516;-69
2023/01/08 01:38:45;;;;;;;0.40;0.40;;;3.90;99.90;;;;;;5073888;28;20169;-68
2023/01/08 01:41:41;;;;;;;0.30;0.30;;;4.00;99.90;;;;;;5074100;28;20529;-70
2023/01/08 01:44:38;;;;;;;0.47;0.47;;;4.10;99.90;;;;;;5073589;28;20219;-69
2023/01/08 01:47:14;;;;;;;0.85;0.82;;;4.20;99.90;;;;;;5074050;28;20590;-69
2023/01/08 01:49:45;;;;;;;0.57;0.57;;;4.20;99.90;;;;;;5074095;28;20204;-68
2023/01/08 01:52:11;;;;;;;0.40;0.40;;;4.20;99.90;;;;;;5073914;28;20542;-69
2023/01/08 01:54:36;;;;;;;0.40;0.40;;;4.30;99.90;;;;;;5073733;28;20173;-69
2023/01/08 01:57:03;;;;;;;0.40;0.40;;;4.20;99.90;;;;;;5074271;28;20173;-68
2023/01/08 01:59:29;;;;;;;0.40;0.40;;;4.20;99.90;;;;;;5073801;28;20166;-70
2023/01/08 02:01:56;;;;;;;0.40;0.40;;;4.30;99.90;;;;;;5073820;28;20209;-70
2023/01/08 02:04:21;;;;;;;0.50;0.50;;;4.30;99.90;;;;;;5073640;28;20169;-67
2023/01/08 02:06:56;;;;;;;0.40;0.40;;;4.40;99.90;;;;;;5073683;28;20226;-68
2023/01/08 02:09:49;;;;;;;0.40;0.40;;;4.40;99.90;;;;;;5073860;28;20161;-68
2023/01/08 02:12:18;;;;;;;0.40;0.40;;;4.40;99.90;;;;;;5073576;28;20189;-68
2023/01/08 02:15:03;;;;;;;0.40;0.40;;;4.50;99.90;;;;;;5073521;28;20169;-70
2023/01/08 02:17:48;;;;;;;0.50;0.50;;;4.40;99.90;;;;;;5073820;28;20227;-69
2023/01/08 02:20:20;;;;;;;0.40;0.40;;;4.50;99.90;;;;;;5073540;28;20173;-70
2023/01/08 02:23:17;;;;;;;0.40;0.40;;;4.60;99.90;;;;;;5073533;28;20757;-69
2023/01/08 02:26:05;;;;;;;0.40;0.40;;;4.60;99.90;;;;;;5073608;28;20172;-70
2023/01/08 02:28:35;;;;;;;0.40;0.40;;;4.80;99.90;;;;;;5073480;28;20169;-69
2023/01/08 02:31:02;;;;;;;0.40;0.40;;;5.00;99.90;;;;;;5073486;28;20235;-69
2023/01/08 02:33:43;;;;;;;0.40;0.40;;;5.00;99.90;;;;;;5073615;28;20193;-70
2023/01/08 02:36:16;;;;;;;0.40;0.40;;;5.00;99.90;;;;;;5073281;28;20182;-69
2023/01/08 02:39:03;;;;;;;0.40;0.40;;;5.00;99.90;;;;;;5073374;28;20597;-70
2023/01/08 02:41:44;;;;;;;0.50;0.50;;;5.10;99.90;;;;;;5073387;28;20169;-68
2023/01/08 02:44:14;;;;;;;1.05;1.05;;;5.10;99.90;;;;;;5071968;28;20599;-68
2023/01/08 02:46:41;;;;;;;0.40;0.40;;;5.00;99.90;;;;;;5073375;28;20231;-70
2023/01/08 02:49:10;;;;;;;0.50;0.50;;;5.00;99.90;;;;;;5072421;28;20273;-67
2023/01/08 02:51:52;;;;;;;0.35;0.35;;;4.80;99.90;;;;;;5077459;28;20200;-69
2023/01/08 02:54:24;;;;;;;0.50;0.50;;;4.70;99.90;;;;;;5077183;28;20172;-70
2023/01/08 02:56:59;;;;;;;0.40;0.40;;;4.80;99.90;;;;;;5077558;28;20180;-70
2023/01/08 02:59:26;;;;;;;1.25;1.20;;;4.80;99.90;;;;;;5077453;28;20201;-69
2023/01/08 03:01:53;;;;;;;0.40;0.40;;;4.90;99.90;;;;;;5077209;28;20207;-69
2023/01/08 03:04:22;;;;;;;0.95;0.93;;;4.90;99.90;;;;;;5077325;28;20172;-70
2023/01/08 03:06:49;;;;;;;2.10;0.85;;;5.00;99.90;;;;;;5077137;28;20639;-68
2023/01/08 03:09:16;;;;;;;0.40;0.40;;;5.20;99.90;;;;;;5077241;28;20232;-69
2023/01/08 03:12:03;;;;;;;0.30;0.30;;;5.20;99.90;;;;;;5077186;28;20260;-70
2023/01/08 03:14:53;;;;;;;0.40;0.40;;;5.30;99.90;;;;;;5076817;28;20174;-69
2023/01/08 03:17:23;;;;;;;0.75;0.75;;;5.30;99.90;;;;;;5077089;28;20643;-70
2023/01/08 03:20:17;;;;;;;0.30;0.30;;;5.30;99.90;;;;;;5076815;28;20538;-69
2023/01/08 03:22:46;;;;;;;0.40;0.40;;;5.30;99.90;;;;;;5076435;28;20220;-70
2023/01/08 03:25:15;;;;;;;0.85;0.85;;;5.40;99.90;;;;;;5076473;28;20188;-70
2023/01/08 03:27:48;;;;;;;0.50;0.50;;;5.40;99.90;;;;;;5076901;28;20616;-69
2023/01/08 03:30:17;;;;;;;0.82;0.82;;;5.30;99.90;;;;;;5076791;28;20537;-70
2023/01/08 03:32:44;;;;;;;2.25;1.35;;;5.30;99.90;;;;;;5076531;28;20196;-70
2023/01/08 03:35:12;;;;;;;0.63;0.63;;;5.30;99.90;;;;;;5076390;28;20208;-69
2023/01/08 03:37:41;;;;;;;0.63;0.63;;;5.40;99.90;;;;;;5076441;28;20185;-68
2023/01/08 03:40:12;;;;;;;0.40;0.40;;;5.40;99.90;;;;;;5076551;28;20209;-70
2023/01/08 03:42:38;;;;;;;0.38;0.38;;;5.40;99.90;;;;;;5075185;28;20811;-68
2023/01/08 03:45:05;;;;;;;0.82;0.82;;;5.50;99.90;;;;;;5076099;28;20256;-70
2023/01/08 03:47:33;;;;;;;0.50;0.50;;;5.40;99.90;;;;;;5076479;28;20566;-69
2023/01/08 03:50:01;;;;;;;2.78;1.40;;;5.40;99.90;;;;;;5076295;28;20267;-68
2023/01/08 03:52:29;;;;;;;0.40;0.40;;;5.30;99.90;;;;;;5076308;28;20562;-70
2023/01/08 03:54:55;;;;;;;0.30;0.30;;;5.30;99.90;;;;;;5076018;28;20267;-69
2023/01/08 03:57:21;;;;;;;0.40;0.40;;;5.40;99.90;;;;;;5076369;28;20227;-68
2023/01/08 03:59:47;;;;;;;1.60;0.50;;;5.50;99.90;;;;;;5075804;28;20170;-70
2023/01/08 04:02:13;;;;;;;0.40;0.40;;;5.70;99.90;;;;;;5075787;28;20208;-70
2023/01/08 04:04:39;;;;;;;19.73;1.58;;;5.90;99.90;;;;;;5075983;28;20416;-69
2023/01/08 04:07:06;;;;;;;0.60;0.60;;;5.90;99.90;;;;;;5076195;28;20219;-70
2023/01/08 04:09:31;;;;;;;0.50;0.50;;;6.10;99.90;;;;;;5076134;28;20170;-69
2023/01/08 04:11:57;;;;;;;1.37;0.97;;;6.20;99.90;;;;;;5075967;28;20536;-69
2023/01/08 04:14:22;;;;;;;0.40;0.40;;;6.30;99.90;;;;;;5075695;28;20167;-70
2023/01/08 04:16:48;;;;;;;0.30;0.30;;;6.40;99.90;;;;;;5076122;28;20170;-67
2023/01/08 04:19:14;;;;;;;0.40;0.40;;;6.50;99.90;;;;;;5076004;28;20583;-69
2023/01/08 04:21:40;;;;;;;1.63;0.50;;;6.70;99.90;;;;;;5075716;28;20197;-70
2023/01/08 04:24:06;;;;;;;0.40;0.40;;;6.80;99.90;;;;;;5075458;28;20191;-70
2023/01/08 04:26:32;;;;;;;0.37;0.37;;;6.80;99.90;;;;;;5075840;28;20402;-68
2023/01/08 04:28:57;;;;;;;0.30;0.30;;;6.90;99.90;;;;;;5075699;28;20406;-67
2023/01/08 04:31:23;;;;;;;0.90;0.90;;;6.80;99.90;;;;;;5075510;28;20510;-69
2023/01/08 04:33:49;;;;;;;0.33;0.33;;;6.80;99.90;;;;;;5075406;28;20217;-70
2023/01/08 04:36:14;;;;;;;0.60;0.60;;;6.90;99.90;;;;;;5075242;28;20207;-68
2023/01/08 04:38:40;;;;;;;0.30;0.30;;;6.90;99.90;;;;;;5076149;28;20181;-68
2023/01/08 04:41:06;;;;;;;0.30;0.30;;;6.90;99.90;;;;;;5075558;28;20161;-69
2023/01/08 04:43:32;;;;;;;1.23;0.70;;;7.00;99.90;;;;;;5075186;28;20462;-70
2023/01/08 04:45:59;;;;;;;0.30;0.30;;;7.10;99.90;;;;;;5075177;28;20196;-69
2023/01/08 04:48:26;;;;;;;0.50;0.50;;;7.10;99.90;;;;;;5075408;28;20215;-69
2023/01/08 04:50:52;;;;;;;2.38;1.45;;;7.20;99.90;;;;;;5075239;28;20168;-69
2023/01/08 04:53:17;;;;;;;0.40;0.40;;;7.40;99.90;;;;;;5075232;28;20526;-69
2023/01/08 04:55:43;;;;;;;0.40;0.40;;;7.40;99.90;;;;;;5074889;28;20585;-68
2023/01/08 04:58:09;;;;;;;0.40;0.40;;;7.50;99.90;;;;;;5075188;28;20647;-68
2023/01/08 05:00:34;;;;;;;0.83;0.70;;;7.60;99.90;;;;;;5074954;28;20309;-70
2023/01/08 05:03:00;;;;;;;0.67;0.50;;;7.60;99.90;;;;;;5074767;28;20242;-69
2023/01/08 05:05:26;;;;;;;0.30;0.30;;;7.60;99.90;;;;;;5074816;28;20263;-70
2023/01/08 05:07:52;;;;;;;3.08;1.75;;;7.60;99.90;;;;;;5074859;28;20169;-69
2023/01/08 05:10:17;;;;;;;0.60;0.60;;;7.60;99.90;;;;;;5074911;28;20532;-70
2023/01/08 05:12:43;;;;;;;0.37;0.37;;;7.60;99.90;;;;;;5073912;28;20195;-70
2023/01/08 05:15:09;;;;;;;2.73;2.20;;;7.50;99.90;;;;;;5074515;28;20183;-68
2023/01/08 05:17:35;;;;;;;0.40;0.40;;;7.50;99.90;;;;;;5073366;28;20645;-68
2023/01/08 05:20:00;;;;;;;0.30;0.30;;;7.50;99.90;;;;;;5074743;28;20199;-69
2023/01/08 05:22:27;;;;;;;0.67;0.67;;;7.60;99.90;;;;;;5074403;28;20262;-68
2023/01/08 05:24:53;;;;;;;0.50;0.50;;;7.60;99.90;;;;;;5074339;28;20225;-69
2023/01/08 05:27:19;;;;;;;0.53;0.53;;;7.60;99.90;;;;;;5074559;28;20175;-68
2023/01/08 05:29:45;;;;;;;0.30;0.30;;;7.60;99.90;;;;;;5074581;28;20172;-69
2023/01/08 05:32:15;;;;;;;0.40;0.40;;;7.60;99.90;;;;;;5074234;28;20192;-67
2023/01/08 05:34:40;;;;;;;0.45;0.43;;;7.50;99.90;;;;;;5074410;28;20177;-71
2023/01/08 05:37:06;;;;;;;0.40;0.40;;;7.40;99.90;;;;;;5074126;28;20711;-70
2023/01/08 05:39:31;;;;;;;0.83;0.60;;;7.50;99.90;;;;;;5074275;28;20176;-68
2023/01/08 05:41:57;;;;;;;0.63;0.63;;;7.50;99.90;;;;;;5074165;28;20245;-70
2023/01/08 05:44:23;;;;;;;0.30;0.30;;;7.60;99.90;;;;;;5073903;28;20294;-70
2023/01/08 05:46:48;;;;;;;0.50;0.50;;;7.60;99.90;;;;;;5074093;28;20522;-70
2023/01/08 05:49:14;;;;;;;0.50;0.50;;;7.60;99.90;;;;;;5074217;28;20171;-70
2023/01/08 05:51:40;;;;;;;0.37;0.37;;;7.60;99.90;;;;;;5074080;28;20706;-67
2023/01/08 05:54:06;;;;;;;0.40;0.40;;;7.60;99.90;;;;;;5073640;28;20199;-68
2023/01/08 05:56:31;;;;;;;0.60;0.60;;;7.50;99.90;;;;;;5074285;28;20413;-68
2023/01/08 05:58:57;;;;;;;1.03;0.60;;;7.50;99.90;;;;;;5073877;28;20172;-67
2023/01/08 06:01:22;;;;;;;0.83;0.60;;;7.50;99.90;;;;;;5073788;28;20725;-69
2023/01/08 06:03:48;;;;;;;0.70;0.70;;;7.50;99.90;;;;;;5073718;28;20258;-68
2023/01/08 06:06:15;;;;;;;1.10;0.60;;;7.50;99.90;;;;;;5073571;28;20176;-69
2023/01/08 06:08:41;;;;;;;0.40;0.40;;;7.40;99.90;;;;;;5073886;28;20172;-70
2023/01/08 06:11:09;;;;;;;0.50;0.50;;;7.40;99.90;;;;;;5073883;28;20195;-68
2023/01/08 06:13:36;;;;;;;0.40;0.40;;;7.50;99.90;;;;;;5073581;28;20223;-69
2023/01/08 06:16:02;;;;;;;0.30;0.30;;;7.60;99.90;;;;;;5073539;28;20172;-69
2023/01/08 06:18:29;;;;;;;0.40;0.40;;;7.60;99.90;;;;;;5073766;28;20641;-69
2023/01/08 06:20:55;;;;;;;0.35;0.35;;;7.50;99.90;;;;;;5073558;28;20404;-70
2023/01/08 06:23:20;;;;;;;1.80;1.03;;;7.50;99.90;;;;;;5073215;28;20269;-70
2023/01/08 06:25:52;;;;;;;0.40;0.40;;;7.40;99.90;;;;;;5073367;28;20446;-70
2023/01/08 06:28:18;;;;;;;0.80;0.80;;;7.40;99.90;;;;;;5073663;28;20188;-69
2023/01/08 06:30:44;;;;;;;1.10;1.10;;;7.40;99.90;;;;;;5073750;28;20211;-68
2023/01/08 06:33:09;;;;;;;1.43;1.37;;;7.40;99.90;;;;;;5073353;28;20229;-71
2023/01/08 06:35:35;;;;;;;0.30;0.30;;;7.50;99.90;;;;;;5073143;28;20192;-69
2023/01/08 06:38:00;;;;;;;0.50;0.50;;;7.60;99.90;;;;;;5073244;28;20296;-68
2023/01/08 06:40:26;;;;;;;0.40;0.40;;;7.50;99.90;;;;;;5073381;28;20170;-68
2023/01/08 06:42:52;;;;;;;0.57;0.57;;;7.50;99.90;;;;;;5073241;28;20281;-68
2023/01/08 06:45:17;;;;;;;0.30;0.30;;;7.50;99.90;;;;;;5073266;28;20173;-69
2023/01/08 06:47:43;;;;;;;0.60;0.47;;;7.40;99.90;;;;;;5073414;28;20177;-68
2023/01/08 06:50:09;;;;;;;0.90;0.90;;;7.40;99.90;;;;;;5073470;28;20625;-70
2023/01/08 06:52:35;;;;;;;0.30;0.30;;;7.50;99.90;;;;;;5073259;28;20202;-70
2023/01/08 06:55:00;;;;;;;0.40;0.40;;;7.50;99.90;;;;;;5072994;28;20562;-67
2023/01/08 06:57:26;;;;;;;0.50;0.50;;;7.60;99.90;;;;;;5071788;28;20196;-68
2023/01/08 06:59:51;;;;;;;0.30;0.30;;;7.60;99.90;;;;;;5073252;28;20634;-70
2023/01/08 07:02:17;;;;;;;0.60;0.60;;;7.70;99.90;;;;;;5073132;28;20250;-70
2023/01/08 07:04:43;;;;;;;0.40;0.40;;;7.80;99.90;;;;;;5072986;28;20254;-68
2023/01/08 07:07:13;;;;;;;0.67;0.67;;;7.80;99.90;;;;;;5072995;28;20264;-67
2023/01/08 07:09:42;;;;;;;0.30;0.30;;;7.80;99.90;;;;;;5073066;28;20177;-67
2023/01/08 07:12:12;;;;;;;0.30;0.30;;;7.80;99.90;;;;;;5073191;28;20226;-70
2023/01/08 07:14:39;;;;;;;0.30;0.30;;;7.80;99.90;;;;;;5071449;28;20176;-68
2023/01/08 07:17:04;;;;;;;0.40;0.40;;;7.80;99.90;;;;;;5071408;28;20203;-71
2023/01/08 07:19:30;;;;;;;0.93;0.50;;;7.70;99.90;;;;;;5073168;28;20213;-70
2023/01/08 07:21:56;;;;;;;0.50;0.50;;;7.70;99.90;;;;;;5072996;28;20202;-70
2023/01/08 07:24:21;;;;;;;0.50;0.50;;;7.60;99.90;;;;;;5073032;28;20409;-70
2023/01/08 07:26:47;;;;;;;0.40;0.40;;;7.60;99.90;;;;;;5073212;28;20297;-68
2023/01/08 07:29:13;;;;;;;0.40;0.40;;;7.60;99.90;;;;;;5073336;28;20520;-70
2023/01/08 07:31:38;;;;;;;1.20;1.13;;;7.60;99.90;;;;;;5073356;28;20174;-70
2023/01/08 07:34:04;;;;;;;0.40;0.40;;;7.70;99.90;;;;;;5072870;28;20188;-70
2023/01/08 07:36:29;;;;;;;0.53;0.53;;;7.70;99.90;;;;;;5075388;28;20262;-69
2023/01/08 07:38:55;;;;;;;0.30;0.30;;;7.70;99.90;;;;;;5076733;28;20229;-70
2023/01/08 07:41:21;;;;;;;0.63;0.63;;;7.70;99.90;;;;;;5076681;28;20176;-69
2023/01/08 07:43:47;;;;;;;0.30;0.30;;;7.60;99.90;;;;;;5075003;28;20594;-69
2023/01/08 07:46:13;;;;;;;0.30;0.30;;;7.60;99.90;;;;;;5076424;28;20434;-69
2023/01/08 07:48:41;;;;;;;10.50;1.05;;;7.60;99.90;;;;;;5077001;28;20178;-71
2023/01/08 07:51:07;;;;;;;0.30;0.30;;;7.60;99.90;;;;;;5076224;28;20176;-67
2023/01/08 07:53:34;;;;;;;0.50;0.50;;;7.60;99.90;;;;;;5076166;28;20194;-69
2023/01/08 07:56:02;;;;;;;0.40;0.40;;;7.60;99.90;;;;;;5076052;28;20177;-68
2023/01/08 07:58:27;;;;;;;0.50;0.50;;;7.60;99.90;;;;;;5074787;28;20181;-70
2023/01/08 08:00:54;;;;;;;0.83;0.83;;;7.60;99.90;;;;;;5076095;28;20175;-69
2023/01/08 08:03:19;;;;;;;0.30;0.30;;;7.50;99.90;;;;;;5075888;28;20200;-69
2023/01/08 08:05:45;;;;;;;0.30;0.30;;;7.60;99.90;;;;;;5075919;28;20177;-68
2023/01/08 08:08:12;;;;;;;0.30;0.30;;;7.60;99.90;;;;;;5076387;28;20260;-69
2023/01/08 08:10:39;;;;;;;0.50;0.50;;;7.60;99.90;;;;;;5076385;28;20249;-68
2023/01/08 08:13:05;;;;;;;0.75;0.75;;;7.60;99.90;;;;;;5075817;28;20206;-66
2023/01/08 08:15:31;;;;;;;0.60;0.60;;;7.70;99.90;;;;;;5075781;28;20290;-68
2023/01/08 08:17:57;;;;;;;0.52;0.52;;;7.60;99.90;;;;;;5076437;28;20200;-69
2023/01/08 08:20:22;;;;;;;0.60;0.60;;;7.60;99.90;;;;;;5075853;28;20176;-67
2023/01/08 08:22:48;;;;;;;0.30;0.30;;;7.70;99.90;;;;;;5075858;28;20201;-69
2023/01/08 08:25:14;;;;;;;0.30;0.30;;;7.80;99.90;;;;;;5075560;28;20627;-69
2023/01/08 08:27:41;;;;;;;0.30;0.30;;;7.70;99.90;;;;;;5075740;28;20173;-68
2023/01/08 08:30:07;;;;;;;0.30;0.30;;;7.60;99.90;;;;;;5075732;28;20525;-67
2023/01/08 08:32:33;;;;;;;0.30;0.30;;;7.50;99.90;;;;;;5076151;28;20713;-69
2023/01/08 08:34:59;;;;;;;0.30;0.30;;;7.40;99.90;;;;;;5075422;28;20173;-68
2023/01/08 08:37:25;;;;;;;0.60;0.60;;;7.30;99.90;;;;;;5075474;28;20192;-69
2023/01/08 08:39:51;;;;;;;0.30;0.30;;;7.30;99.90;;;;;;5075726;28;20252;-67
2023/01/08 08:42:16;;;;;;;0.40;0.40;;;7.20;99.90;;;;;;5075506;28;20196;-66
2023/01/08 08:44:42;;;;;;;1.17;0.93;;;7.20;99.90;;;;;;5075553;28;20443;-69
2023/01/08 08:47:08;;;;;;;0.50;0.50;;;7.20;99.90;;;;;;5075804;28;20628;-68
2023/01/08 08:49:35;;;;;;;0.30;0.30;;;7.20;99.90;;;;;;5075542;28;20172;-67
2023/01/08 08:52:04;;;;;;;0.30;0.30;;;7.20;99.90;;;;;;5075181;28;20177;-70
2023/01/08 08:54:30;;;;;;;0.30;0.30;;;7.20;99.90;;;;;;5075048;28;20176;-69
2023/01/08 08:56:56;;;;;;;0.30;0.30;;;7.20;99.90;;;;;;5075436;28;20501;-69
2023/01/08 08:59:22;;;;;;;0.40;0.40;;;7.20;99.90;;;;;;5075631;28;20411;-69
2023/01/08 09:01:47;;;;;;;0.50;0.50;;;7.20;99.90;;;;;;5075458;28;20566;-68
2023/01/08 09:04:13;;;;;;;0.40;0.40;;;7.10;99.90;;;;;;5074648;28;20638;-69
2023/01/08 09:06:38;;;;;;;0.77;0.67;;;7.00;99.90;;;;;;5075065;28;20170;-68
2023/01/08 09:09:04;;;;;;;0.33;0.33;;;7.10;99.90;;;;;;5075468;28;20718;-67
2023/01/08 09:11:30;;;;;;;0.60;0.60;;;7.20;99.90;;;;;;5075211;28;20622;-68
2023/01/08 09:13:56;;;;;;;0.35;0.35;;;7.30;99.90;;;;;;5075298;28;20594;-67
2023/01/08 09:16:21;;;;;;;0.40;0.40;;;7.30;99.90;;;;;;5074607;28;20173;-69
2023/01/08 09:18:48;;;;;;;0.60;0.60;;;7.40;99.90;;;;;;5074703;28;20248;-68
2023/01/08 09:21:14;;;;;;;0.40;0.40;;;7.40;99.90;;;;;;5074778;28;20168;-69
2023/01/08 09:23:40;;;;;;;0.50;0.50;;;7.50;99.90;;;;;;5074739;28;20208;-69
2023/01/08 09:26:08;;;;;;;0.30;0.30;;;7.60;99.90;;;;;;5074811;28;20176;-68
2023/01/08 09:28:33;;;;;;;0.40;0.40;;;7.60;99.90;;;;;;5074629;28;20177;-67
2023/01/08 09:31:02;;;;;;;0.30;0.30;;;7.70;99.90;;;;;;5074521;28;20173;-67
2023/01/08 09:33:29;;;;;;;0.32;0.32;;;7.50;99.90;;;;;;5071328;28;20196;-71
2023/01/08 09:35:54;;;;;;;0.40;0.40;;;7.50;99.90;;;;;;5074384;28;20533;-68
2023/01/08 09:38:20;;;;;;;0.30;0.30;;;7.50;99.90;;;;;;5074513;28;20192;-69
2023/01/08 09:40:57;;;;;;;0.30;0.30;;;7.60;99.90;;;;;;5072330;28;20165;-69
2023/01/08 09:43:25;;;;;;;1.02;1.02;;;7.80;99.90;;;;;;5074255;28;20494;-69
2023/01/08 09:45:59;;;;;;;0.30;0.30;;;7.80;99.90;;;;;;5073923;28;20173;-68
2023/01/08 09:48:29;;;;;;;0.30;0.30;;;7.90;99.90;;;;;;5074103;28;20250;-67
2023/01/08 09:50:56;;;;;;;0.30;0.30;;;8.00;99.90;;;;;;5074526;28;20173;-69
2023/01/08 09:53:22;;;;;;;0.50;0.45;;;7.90;99.90;;;;;;5074433;28;20696;-74
2023/01/08 09:55:58;;;;;;;0.30;0.30;;;7.90;99.90;;;;;;5073845;28;20169;-69
2023/01/08 09:58:34;;;;;;;0.30;0.30;;;7.90;99.90;;;;;;5073740;28;20194;-68
2023/01/08 10:01:02;;;;;;;0.30;0.30;;;7.90;99.90;;;;;;5074378;28;20180;-67
2023/01/08 10:03:40;;;;;;;0.30;0.30;;;7.80;99.90;;;;;;5074154;28;20239;-68
2023/01/08 10:06:10;;;;;;;0.30;0.30;;;7.80;99.90;;;;;;5074361;28;20214;-69
2023/01/08 10:08:36;;;;;;;0.52;0.52;;;7.90;99.90;;;;;;5073884;28;20176;-67
2023/01/08 10:11:03;;;;;;;0.50;0.50;;;7.90;99.90;;;;;;5073863;28;20650;-70
2023/01/08 10:13:28;;;;;;;0.50;0.50;;;7.90;99.90;;;;;;5073839;28;20414;-69
2023/01/08 10:15:54;;;;;;;0.40;0.40;;;8.00;99.90;;;;;;5072400;28;20184;-70
2023/01/08 10:18:24;;;;;;;0.30;0.30;;;7.90;99.90;;;;;;5073527;28;20177;-68
2023/01/08 10:20:49;;;;;;;0.30;0.30;;;7.80;99.90;;;;;;5071885;28;20175;-66
2023/01/08 10:23:18;;;;;;;0.77;0.77;;;7.90;99.90;;;;;;5073538;28;20208;-65
2023/01/08 10:26:02;;;;;;;0.30;0.30;;;7.80;99.90;;;;;;5073702;28;20173;-67
2023/01/08 10:28:29;;;;;;;0.30;0.30;;;7.90;99.90;;;;;;5073923;28;20183;-68
2023/01/08 10:31:15;;;;;;;0.30;0.30;;;7.80;99.90;;;;;;5073530;28;20174;-71
2023/01/08 10:33:46;;;;;;;0.60;0.60;;;7.90;99.90;;;;;;5071621;28;20227;-69
2023/01/08 10:36:15;;;;;;;0.40;0.40;;;7.80;99.90;;;;;;5073096;28;20185;-68
2023/01/08 10:38:57;;;;;;;0.30;0.30;;;7.90;99.90;;;;;;5073475;28;20181;-68
2023/01/08 10:41:23;;;;;;;0.30;0.30;;;7.90;99.90;;;;;;5073586;28;20165;-70
2023/01/08 10:44:01;;;;;;;0.30;0.30;;;7.80;99.90;;;;;;5073394;28;20299;-69
2023/01/08 10:46:34;;;;;;;0.30;0.30;;;7.80;99.90;;;;;;5073339;28;20405;-67
2023/01/08 10:49:02;;;;;;;0.30;0.30;;;7.90;99.90;;;;;;5073474;28;20170;-69
2023/01/08 10:51:30;;;;;;;0.30;0.30;;;8.00;99.90;;;;;;5073383;28;20169;-69
2023/01/08 10:54:22;;;;;;;0.30;0.30;;;8.00;99.90;;;;;;5073163;28;20190;-69
2023/01/08 10:56:47;;;;;;;0.30;0.30;;;8.00;99.90;;;;;;5073466;28;20574;-68
2023/01/08 10:59:22;;;;;;;0.30;0.30;;;8.00;99.90;;;;;;5073258;28;20212;-70
2023/01/08 11:01:49;;;;;;;0.30;0.30;;;7.90;99.90;;;;;;5073203;28;20244;-70
2023/01/08 11:04:27;;;;;;;0.40;0.40;;;7.80;99.90;;;;;;5073068;28;20525;-68
2023/01/08 11:06:58;;;;;;;0.40;0.40;;;7.90;99.90;;;;;;5073302;28;20171;-70
2023/01/08 11:09:28;;;;;;;0.75;0.75;;;7.90;99.90;;;;;;5073150;28;20664;-70
2023/01/08 11:11:54;;;;;;;0.80;0.80;;;7.90;99.90;;;;;;5074751;28;20180;-68
2023/01/08 11:14:30;;;;;;;0.30;0.30;;;7.90;99.90;;;;;;5075334;28;20190;-70
2023/01/08 11:16:57;;;;;;;0.30;0.30;;;7.80;99.90;;;;;;5076987;28;20764;-70
2023/01/08 11:19:26;;;;;;;6.38;2.45;;;7.70;99.90;;;;;;5077076;28;20173;-67
2023/01/08 11:22:04;;;;;;;0.75;0.75;;;7.70;99.90;;;;;;5077081;28;20226;-71
2023/01/08 11:24:37;;;;;;;0.30;0.30;;;7.70;99.90;;;;;;5076637;28;20240;-70
2023/01/08 11:27:32;;;;;;;0.40;0.40;;;7.70;99.90;;;;;;5077003;28;20592;-69
2023/01/08 11:30:05;;;;;;;0.30;0.30;;;7.60;99.90;;;;;;5076330;28;20197;-69
2023/01/08 11:32:56;;;;;;;0.30;0.30;;;7.70;99.90;;;;;;5076048;28;20599;-68
2023/01/08 11:35:28;;;;;;;0.50;0.50;;;7.60;99.90;;;;;;5076593;28;20202;-71
2023/01/08 11:38:01;;;;;;;0.80;0.43;;;7.70;99.90;;;;;;5076475;28;20557;-70
2023/01/08 11:40:37;;;;;;;0.30;0.30;;;7.80;99.90;;;;;;5076725;28;20227;-71
2023/01/08 11:43:23;;;;;;;0.30;0.30;;;7.70;99.90;;;;;;5076841;28;20235;-70
2023/01/08 11:45:54;;;;;;;0.57;0.57;;;7.80;99.90;;;;;;5076927;28;20170;-67
2023/01/08 11:48:30;;;;;;;0.30;0.30;;;7.80;99.90;;;;;;5076976;28;20633;-68
2023/01/08 11:51:09;;;;;;;0.47;0.47;;;7.80;99.90;;;;;;5075144;28;20175;-69
2023/01/08 11:53:41;;;;;;;0.40;0.40;;;7.70;99.90;;;;;;5073843;28;20193;-70
2023/01/08 11:56:40;;;;;;;0.60;0.60;;;7.70;99.90;;;;;;5075553;28;20176;-68
2023/01/08 11:59:24;;;;;;;0.30;0.30;;;7.70;99.90;;;;;;5074564;28;20252;-68
2023/01/08 12:02:22;;;;;;;0.30;0.30;;;7.70;99.90;;;;;;5075434;28;20165;-70
2023/01/08 12:05:07;;;;;;;0.30;0.30;;;7.70;99.90;;;;;;5075575;28;20170;-69
2023/01/08 12:07:54;;;;;;;0.40;0.40;;;7.70;99.90;;;;;;5076275;28;20173;-69
2023/01/08 12:10:31;;;;;;;3.50;1.63;;;7.80;99.90;;;;;;5076101;28;20201;-70
2023/01/08 12:13:16;;;;;;;0.40;0.40;;;7.90;99.90;;;;;;5075850;28;20250;-68
2023/01/08 12:15:59;;;;;;;0.30;0.30;;;8.00;99.90;;;;;;5075664;28;20231;-70
2023/01/08 12:18:40;;;;;;;0.50;0.50;;;8.10;99.90;;;;;;5076231;28;20161;-70
2023/01/08 12:21:14;;;;;;;0.75;0.75;;;8.20;99.90;;;;;;5075595;28;20173;-68
2023/01/08 12:24:01;;;;;;;0.88;0.88;;;8.20;99.90;;;;;;5075822;28;20210;-69
2023/01/08 12:26:51;;;;;;;0.60;0.50;;;8.30;99.90;;;;;;5075710;28;20161;-70
2023/01/08 12:29:53;;;;;;;0.77;0.70;;;8.40;99.90;;;;;;5075770;28;20530;-69
2023/01/08 12:32:36;;;;;;;3.50;2.95;;;8.50;99.90;;;;;;5075640;28;20235;-67
2023/01/08 12:35:18;;;;;;;0.73;0.73;;;8.50;99.90;;;;;;5075741;28;20581;-70
2023/01/08 12:37:55;;;;;;;0.30;0.30;;;8.60;99.90;;;;;;5075492;28;20185;-69
2023/01/08 12:40:36;;;;;;;1.08;1.08;;;8.60;99.90;;;;;;5075686;28;20181;-70
2023/01/08 12:43:10;;;;;;;0.68;0.68;;;8.60;99.90;;;;;;5075435;28;20227;-67
2023/01/08 12:45:42;;;;;;;1.67;1.58;;;8.70;99.90;;;;;;5075286;28;20183;-68
2023/01/08 12:48:30;;;;;;;0.40;0.40;;;8.70;99.90;;;;;;5075442;28;20208;-69
2023/01/08 12:51:22;;;;;;;0.40;0.40;;;8.80;99.90;;;;;;5075025;28;20189;-70
2023/01/08 12:54:02;;;;;;;0.30;0.30;;;8.80;99.90;;;;;;5075069;28;20197;-70
2023/01/08 12:57:10;;;;;;;2.53;2.33;;;8.80;99.90;;;;;;5075265;28;20180;-71
2023/01/08 13:00:07;;;;;;;1.95;1.50;;;8.80;99.90;;;;;;5075256;28;20655;-70
2023/01/08 13:02:52;;;;;;;1.00;1.00;;;8.70;99.90;;;;;;5074300;28;20304;-69
2023/01/08 13:05:18;;;;;;;0.57;0.57;;;8.80;99.90;;;;;;5074683;28;20241;-70
2023/01/08 13:07:51;;;;;;;0.67;0.67;;;8.90;99.90;;;;;;5074765;28;20239;-68
2023/01/08 13:10:48;;;;;;;0.80;0.80;;;8.90;99.90;;;;;;5075018;28;20634;-70
2023/01/08 13:13:27;;;;;;;5.38;5.05;;;8.90;99.90;;;;;;5074579;28;20296;-68